createdAt,value
2022-09-18T00:00:21.202Z,98707.06
2022-09-18T00:02:23.811Z,98721.50
2022-09-18T00:04:26.269Z,98722.66
2022-09-18T00:06:34.733Z,98724.94
2022-09-18T00:08:38.851Z,98720.16
2022-09-18T00:10:43.670Z,98718.91
2022-09-18T00:12:46.132Z,98716.94
2022-09-18T00:14:48.669Z,98725.97
2022-09-18T00:16:51.534Z,98723.69
2022-09-18T00:18:54.280Z,98723.34
2022-09-18T00:21:04.966Z,98725.75
2022-09-18T00:23:07.434Z,98739.03
2022-09-18T00:25:09.968Z,98740.31
2022-09-18T00:27:13.841Z,98739.97
2022-09-18T00:29:18.122Z,98743.16
2022-09-18T00:31:25.762Z,98748.31
2022-09-18T00:33:28.341Z,98755.09
2022-09-18T00:35:30.850Z,98760.22
2022-09-18T00:37:33.977Z,98746.03
2022-09-18T00:39:36.516Z,98756.44
2022-09-18T00:41:43.687Z,98757.72
2022-09-18T00:43:46.404Z,98759.31
2022-09-18T00:46:18.924Z,98761.81
2022-09-18T00:48:24.044Z,98772.47
2022-09-18T00:50:27.730Z,98767.44
2022-09-18T00:52:45.526Z,98763.19
2022-09-18T00:54:52.894Z,98764.44
2022-09-18T00:57:00.528Z,98766.84
2022-09-18T00:59:04.215Z,98765.34
2022-09-18T01:01:09.225Z,98759.13
2022-09-18T01:03:12.124Z,98754.44
2022-09-18T01:05:36.549Z,98775.75
2022-09-18T01:08:23.455Z,98770.72
2022-09-18T01:10:47.254Z,98762.94
2022-09-18T01:12:57.064Z,98760.97
2022-09-18T01:15:37.703Z,98766.25
2022-09-18T01:18:09.636Z,98762.34
2022-09-18T01:20:44.131Z,98758.00
2022-09-18T01:23:10.365Z,98768.28
2022-09-18T01:25:28.238Z,98775.06
2022-09-18T01:27:53.766Z,98766.78
2022-09-18T01:30:06.492Z,98770.34
2022-09-18T01:32:29.753Z,98757.03
2022-09-18T01:34:35.034Z,98754.72
2022-09-18T01:36:41.412Z,98759.53
2022-09-18T01:38:55.736Z,98762.75
2022-09-18T01:41:25.350Z,98772.63
2022-09-18T01:43:31.162Z,98772.97
2022-09-18T01:45:37.789Z,98769.88
2022-09-18T01:47:57.814Z,98764.00
2022-09-18T01:50:03.008Z,98753.69
2022-09-18T01:52:17.813Z,98765.59
2022-09-18T01:54:24.973Z,98765.25
2022-09-18T01:56:33.611Z,98769.63
2022-09-18T01:58:37.621Z,98764.44
2022-09-18T02:00:46.574Z,98760.53
2022-09-18T02:02:52.126Z,98764.56
2022-09-18T02:05:00.807Z,98774.41
2022-09-18T02:07:30.519Z,98777.63
2022-09-18T02:09:33.356Z,98782.78
2022-09-18T02:11:41.105Z,98778.53
2022-09-18T02:14:21.715Z,98791.94
2022-09-18T02:16:57.699Z,98795.94
2022-09-18T02:19:19.900Z,98790.78
2022-09-18T02:21:28.995Z,98787.25
2022-09-18T02:23:34.123Z,98800.66
2022-09-18T02:25:59.709Z,98804.66
2022-09-18T02:28:05.068Z,98803.06
2022-09-18T02:30:09.585Z,98804.56
2022-09-18T02:32:13.309Z,98805.44
2022-09-18T02:34:17.453Z,98800.75
2022-09-18T02:36:44.478Z,98800.31
2022-09-18T02:38:49.813Z,98800.31
2022-09-18T02:41:07.805Z,98801.91
2022-09-18T02:44:02.885Z,98792.75
2022-09-18T02:46:08.323Z,98808.13
2022-09-18T02:48:25.380Z,98800.31
2022-09-18T02:50:45.718Z,98795.94
2022-09-18T02:52:56.213Z,98804.19
2022-09-18T02:55:12.139Z,98811.66
2022-09-18T02:57:21.033Z,98811.31
2022-09-18T02:59:34.371Z,98819.22
2022-09-18T03:01:41.810Z,98811.78
2022-09-18T03:03:44.541Z,98811.78
2022-09-18T03:05:47.213Z,98813.81
2022-09-18T03:07:49.746Z,98817.03
2022-09-18T03:09:52.276Z,98818.28
2022-09-18T03:11:56.031Z,98814.03
2022-09-18T03:13:58.636Z,98828.34
2022-09-18T03:16:01.309Z,98818.59
2022-09-18T03:18:03.925Z,98814.75
2022-09-18T03:20:07.545Z,98799.72
2022-09-18T03:22:10.095Z,98809.00
2022-09-18T03:24:13.072Z,98801.63
2022-09-18T03:26:15.528Z,98802.19
2022-09-18T03:28:18.891Z,98816.41
2022-09-18T03:30:21.675Z,98809.00
2022-09-18T03:32:24.138Z,98806.34
2022-09-18T03:34:26.582Z,98814.81
2022-09-18T03:36:29.084Z,98818.03
2022-09-18T03:38:32.398Z,98812.59
2022-09-18T03:40:35.089Z,98819.44
2022-09-18T03:42:37.699Z,98824.69
2022-09-18T03:44:40.146Z,98828.81
2022-09-18T03:46:42.800Z,98830.13
2022-09-18T03:48:45.367Z,98830.69
2022-09-18T03:50:50.763Z,98828.81
2022-09-18T03:52:53.255Z,98834.09
2022-09-18T03:54:56.025Z,98831.84
2022-09-18T03:56:58.564Z,98837.09
2022-09-18T03:59:01.194Z,98844.66
2022-09-18T04:01:03.967Z,98835.66
2022-09-18T04:03:06.638Z,98843.59
2022-09-18T04:05:09.881Z,98852.75
2022-09-18T04:07:12.353Z,98850.44
2022-09-18T04:09:16.756Z,98854.44
2022-09-18T04:11:19.284Z,98853.75
2022-09-18T04:13:22.569Z,98851.78
2022-09-18T04:15:25.132Z,98858.97
2022-09-18T04:17:27.655Z,98861.00
2022-09-18T04:19:30.284Z,98858.25
2022-09-18T04:21:32.998Z,98868.22
2022-09-18T04:23:35.657Z,98864.28
2022-09-18T04:25:38.974Z,98868.31
2022-09-18T04:27:41.468Z,98873.84
2022-09-18T04:29:43.981Z,98874.63
2022-09-18T04:31:46.561Z,98871.88
2022-09-18T04:33:49.279Z,98869.13
2022-09-18T04:35:51.956Z,98884.50
2022-09-18T04:37:54.593Z,98889.69
2022-09-18T04:39:57.302Z,98892.88
2022-09-18T04:41:59.863Z,98885.84
2022-09-18T04:44:02.642Z,98887.88
2022-09-18T04:46:05.338Z,98889.13
2022-09-18T04:48:07.775Z,98890.75
2022-09-18T04:50:11.107Z,98893.50
2022-09-18T04:52:13.562Z,98893.84
2022-09-18T04:54:16.541Z,98896.25
2022-09-18T04:56:19.145Z,98895.09
2022-09-18T04:58:21.682Z,98893.50
2022-09-18T05:00:24.239Z,98897.13
2022-09-18T05:02:26.834Z,98899.25
2022-09-18T05:04:29.458Z,98902.09
2022-09-18T05:06:31.999Z,98902.09
2022-09-18T05:08:34.903Z,98894.25
2022-09-18T05:10:37.417Z,98902.25
2022-09-18T05:12:41.242Z,98902.78
2022-09-18T05:14:43.853Z,98905.25
2022-09-18T05:16:46.326Z,98900.25
2022-09-18T05:18:48.934Z,98903.47
2022-09-18T05:20:51.571Z,98909.19
2022-09-18T05:22:54.090Z,98908.56
2022-09-18T05:24:56.543Z,98902.06
2022-09-18T05:26:59.202Z,98912.53
2022-09-18T05:29:01.777Z,98919.78
2022-09-18T05:31:04.699Z,98921.53
2022-09-18T05:33:08.277Z,98918.84
2022-09-18T05:35:11.067Z,98920.94
2022-09-18T05:37:13.591Z,98913.16
2022-09-18T05:39:17.779Z,98915.53
2022-09-18T05:41:20.593Z,98919.19
2022-09-18T05:43:23.267Z,98922.84
2022-09-18T05:45:26.438Z,98919.75
2022-09-18T05:47:28.967Z,98918.34
2022-09-18T05:49:31.481Z,98930.34
2022-09-18T05:51:33.952Z,98932.44
2022-09-18T05:53:36.498Z,98932.88
2022-09-18T05:55:40.073Z,98935.72
2022-09-18T05:57:42.495Z,98937.31
2022-09-18T05:59:44.975Z,98934.09
2022-09-18T06:01:47.724Z,98937.22
2022-09-18T06:03:51.091Z,98938.09
2022-09-18T06:05:54.927Z,98939.78
2022-09-18T06:07:59.880Z,98933.56
2022-09-18T06:10:04.419Z,98937.88
2022-09-18T06:12:07.183Z,98934.22
2022-09-18T06:14:09.678Z,98937.56
2022-09-18T06:16:12.224Z,98943.16
2022-09-18T06:18:15.793Z,98945.53
2022-09-18T06:20:18.701Z,98952.06
2022-09-18T06:22:21.528Z,98958.81
2022-09-18T06:24:24.626Z,98952.47
2022-09-18T06:26:28.146Z,98962.31
2022-09-18T06:28:32.773Z,98966.63
2022-09-18T06:30:36.802Z,98965.38
2022-09-18T06:32:39.568Z,98973.19
2022-09-18T06:34:42.461Z,98973.06
2022-09-18T06:36:45.273Z,98969.91
2022-09-18T06:38:50.747Z,98972.63
2022-09-18T06:40:54.917Z,98970.72
2022-09-18T06:43:04.748Z,98977.13
2022-09-18T06:45:08.258Z,98975.88
2022-09-18T06:47:10.903Z,98975.84
2022-09-18T06:49:13.644Z,98973.88
2022-09-18T06:51:16.344Z,98980.63
2022-09-18T06:53:19.156Z,98968.75
2022-09-18T06:55:22.117Z,98968.81
2022-09-18T06:57:24.778Z,98972.09
2022-09-18T06:59:27.508Z,98981.97
2022-09-18T07:01:30.414Z,98977.91
2022-09-18T07:03:33.118Z,98973.63
2022-09-18T07:05:41.903Z,98977.91
2022-09-18T07:07:46.089Z,98983.53
2022-09-18T07:09:48.756Z,98987.53
2022-09-18T07:11:51.412Z,98980.91
2022-09-18T07:13:54.455Z,98990.84
2022-09-18T07:15:57.468Z,98984.59
2022-09-18T07:18:02.954Z,98973.94
2022-09-18T07:20:06.646Z,98978.25
2022-09-18T07:22:09.400Z,98979.16
2022-09-18T07:24:12.046Z,98978.56
2022-09-18T07:26:15.175Z,98979.94
2022-09-18T07:28:18.050Z,98981.72
2022-09-18T07:30:21.411Z,98980.78
2022-09-18T07:32:25.472Z,98979.41
2022-09-18T07:34:28.817Z,98976.81
2022-09-18T07:36:32.778Z,98972.25
2022-09-18T07:38:35.571Z,98973.47
2022-09-18T07:40:38.364Z,98971.81
2022-09-18T07:42:41.048Z,98982.88
2022-09-18T07:44:43.754Z,98982.00
2022-09-18T07:46:46.483Z,98979.25
2022-09-18T07:48:49.390Z,98983.16
2022-09-18T07:50:52.449Z,98973.59
2022-09-18T07:52:57.844Z,98983.41
2022-09-18T07:55:00.529Z,98977.81
2022-09-18T07:57:03.344Z,98988.06
2022-09-18T07:59:06.106Z,98985.22
2022-09-18T08:01:08.772Z,98968.56
2022-09-18T08:03:13.515Z,98979.75
2022-09-18T08:05:16.819Z,98980.59
2022-09-18T08:07:19.454Z,98983.75
2022-09-18T08:09:22.727Z,98983.38
2022-09-18T08:11:25.505Z,98980.63
2022-09-18T08:13:28.234Z,98986.66
2022-09-18T08:15:31.790Z,98986.25
2022-09-18T08:17:34.605Z,98985.44
2022-09-18T08:19:37.271Z,98992.31
2022-09-18T08:21:40.271Z,98992.34
2022-09-18T08:23:42.918Z,98992.88
2022-09-18T08:25:46.555Z,98996.78
2022-09-18T08:27:49.514Z,98984.88
2022-09-18T08:29:52.235Z,99002.78
2022-09-18T08:31:55.005Z,98986.91
2022-09-18T08:33:57.833Z,98997.22
2022-09-18T08:36:01.011Z,99004.38
2022-09-18T08:38:04.161Z,99000.84
2022-09-18T08:40:09.238Z,99000.53
2022-09-18T08:42:42.868Z,99001.38
2022-09-18T08:45:07.515Z,99008.94
2022-09-18T08:47:12.652Z,99007.47
2022-09-18T08:49:18.248Z,99008.75
2022-09-18T08:51:34.811Z,99010.06
2022-09-18T08:53:43.379Z,99008.22
2022-09-18T08:55:48.707Z,99007.13
2022-09-18T08:58:23.243Z,99011.25
2022-09-18T09:00:34.590Z,99006.56
2022-09-18T09:02:48.734Z,99009.00
2022-09-18T09:04:56.255Z,99007.56
2022-09-18T09:07:43.386Z,99006.50
2022-09-18T09:10:13.780Z,99001.44
2022-09-18T09:12:42.334Z,99001.91
2022-09-18T09:14:58.079Z,99002.34
2022-09-18T09:17:12.256Z,99000.03
2022-09-18T09:19:41.893Z,98989.34
2022-09-18T09:22:07.949Z,98995.34
2022-09-18T09:24:35.869Z,98995.00
2022-09-18T09:26:38.882Z,98999.78
2022-09-18T09:29:02.030Z,98993.03
2022-09-18T09:31:10.082Z,98997.38
2022-09-18T09:34:01.720Z,98993.00
2022-09-18T09:36:09.987Z,98991.50
2022-09-18T09:38:51.291Z,98990.41
2022-09-18T09:40:55.608Z,98987.22
2022-09-18T09:43:16.291Z,98990.41
2022-09-18T09:45:45.473Z,98976.03
2022-09-18T09:48:22.899Z,98980.03
2022-09-18T09:50:38.672Z,98988.28
2022-09-18T09:52:44.013Z,98985.13
2022-09-18T09:54:47.294Z,98983.50
2022-09-18T09:57:40.285Z,98975.59
2022-09-18T10:00:05.138Z,98968.09
2022-09-18T10:02:19.694Z,98980.03
2022-09-18T10:04:38.251Z,98978.00
2022-09-18T10:06:58.784Z,98975.59
2022-09-18T10:09:23.696Z,98970.78
2022-09-18T10:11:27.206Z,98978.38
2022-09-18T10:13:36.681Z,98969.66
2022-09-18T10:15:44.772Z,98979.19
2022-09-18T10:17:51.544Z,98984.75
2022-09-18T10:19:54.338Z,98975.22
2022-09-18T10:21:57.345Z,98966.50
2022-09-18T10:24:25.107Z,98972.47
2022-09-18T10:26:35.144Z,98964.50
2022-09-18T10:28:37.783Z,98972.84
2022-09-18T10:31:00.538Z,98974.09
2022-09-18T10:33:03.511Z,98969.69
2022-09-18T10:35:30.897Z,98973.66
2022-09-18T10:37:33.510Z,98967.28
2022-09-18T10:39:39.410Z,98969.66
2022-09-18T10:41:43.375Z,98968.81
2022-09-18T10:44:29.339Z,98967.16
2022-09-18T10:46:34.777Z,98967.91
2022-09-18T10:48:37.551Z,98967.91
2022-09-18T10:50:55.814Z,98962.72
2022-09-18T10:53:20.697Z,98963.91
2022-09-18T10:55:27.998Z,98958.31
2022-09-18T10:57:55.139Z,98960.59
2022-09-18T10:59:58.171Z,98970.03
2022-09-18T11:02:04.217Z,98971.59
2022-09-18T11:04:07.263Z,98964.06
2022-09-18T11:06:15.761Z,98962.84
2022-09-18T11:08:22.356Z,98962.84
2022-09-18T11:10:27.204Z,98950.56
2022-09-18T11:12:30.515Z,98943.44
2022-09-18T11:14:41.259Z,98956.59
2022-09-18T11:16:48.794Z,98953.81
2022-09-18T11:19:24.516Z,98957.78
2022-09-18T11:21:27.640Z,98951.41
2022-09-18T11:23:35.883Z,98949.06
2022-09-18T11:25:38.665Z,98955.06
2022-09-18T11:27:50.015Z,98954.28
2022-09-18T11:29:53.229Z,98951.88
2022-09-18T11:32:01.820Z,98942.69
2022-09-18T11:34:06.571Z,98933.94
2022-09-18T11:36:11.797Z,98937.13
2022-09-18T11:38:19.811Z,98935.94
2022-09-18T11:40:27.833Z,98937.13
2022-09-18T11:42:31.786Z,98943.47
2022-09-18T11:44:35.133Z,98939.09
2022-09-18T11:47:00.979Z,98930.28
2022-09-18T11:49:09.920Z,98925.50
2022-09-18T11:51:20.931Z,98923.50
2022-09-18T11:53:28.050Z,98926.25
2022-09-18T11:55:49.915Z,98920.25
2022-09-18T11:58:01.039Z,98919.78
2022-09-18T12:00:12.474Z,98913.75
2022-09-18T12:02:24.658Z,98914.94
2022-09-18T12:05:03.301Z,98921.22
2022-09-18T12:07:38.559Z,98918.38
2022-09-18T12:10:11.748Z,98921.09
2022-09-18T12:12:46.775Z,98909.09
2022-09-18T12:14:55.222Z,98913.03
2022-09-18T12:17:10.537Z,98905.88
2022-09-18T12:19:16.634Z,98907.03
2022-09-18T12:21:30.396Z,98912.56
2022-09-18T12:23:32.935Z,98899.41
2022-09-18T12:25:56.883Z,98899.75
2022-09-18T12:28:08.595Z,98906.06
2022-09-18T12:30:15.571Z,98908.03
2022-09-18T12:32:36.693Z,98921.13
2022-09-18T12:35:01.273Z,98917.94
2022-09-18T12:37:31.570Z,98910.78
2022-09-18T12:39:52.883Z,98910.78
2022-09-18T12:42:34.889Z,98903.22
2022-09-18T12:44:37.375Z,98902.72
2022-09-18T12:47:03.114Z,98905.06
2022-09-18T12:49:45.268Z,98905.84
2022-09-18T12:51:54.905Z,98893.88
2022-09-18T12:54:12.504Z,98900.22
2022-09-18T12:56:36.916Z,98904.53
2022-09-18T12:58:58.527Z,98897.81
2022-09-18T13:01:03.697Z,98894.63
2022-09-18T13:03:16.972Z,98895.38
2022-09-18T13:05:32.743Z,98893.38
2022-09-18T13:07:43.041Z,98885.38
2022-09-18T13:10:28.706Z,98889.72
2022-09-18T13:12:38.443Z,98885.69
2022-09-18T13:14:52.235Z,98889.59
2022-09-18T13:17:18.636Z,98884.78
2022-09-18T13:19:35.375Z,98885.19
2022-09-18T13:21:42.279Z,98889.50
2022-09-18T13:23:47.674Z,98893.03
2022-09-18T13:25:51.883Z,98902.53
2022-09-18T13:27:56.909Z,98890.16
2022-09-18T13:29:59.902Z,98901.25
2022-09-18T13:32:02.530Z,98891.34
2022-09-18T13:34:18.833Z,98902.38
2022-09-18T13:36:28.825Z,98901.16
2022-09-18T13:38:33.869Z,98895.19
2022-09-18T13:40:42.654Z,98893.59
2022-09-18T13:42:45.219Z,98892.38
2022-09-18T13:44:50.197Z,98895.16
2022-09-18T13:46:56.030Z,98892.31
2022-09-18T13:49:02.557Z,98887.16
2022-09-18T13:51:09.624Z,98894.22
2022-09-18T13:53:30.800Z,98892.22
2022-09-18T13:55:36.756Z,98878.69
2022-09-18T13:57:43.717Z,98873.50
2022-09-18T14:00:09.566Z,98883.38
2022-09-18T14:02:33.080Z,98878.22
2022-09-18T14:04:41.196Z,98880.56
2022-09-18T14:06:45.329Z,98878.53
2022-09-18T14:08:48.115Z,98878.13
2022-09-18T14:11:15.508Z,98871.75
2022-09-18T14:13:37.447Z,98867.75
2022-09-18T14:15:50.142Z,98870.00
2022-09-18T14:18:15.509Z,98860.44
2022-09-18T14:20:21.921Z,98869.06
2022-09-18T14:22:30.437Z,98872.22
2022-09-18T14:25:00.906Z,98876.88
2022-09-18T14:27:28.369Z,98885.84
2022-09-18T14:29:33.057Z,98881.06
2022-09-18T14:31:45.662Z,98888.91
2022-09-18T14:33:49.233Z,98876.94
2022-09-18T14:36:02.639Z,98886.00
2022-09-18T14:38:32.233Z,98887.47
2022-09-18T14:40:36.151Z,98879.41
2022-09-18T14:42:42.056Z,98876.22
2022-09-18T14:44:52.636Z,98874.56
2022-09-18T14:46:58.082Z,98868.63
2022-09-18T14:49:03.134Z,98871.31
2022-09-18T14:51:16.598Z,98877.19
2022-09-18T14:53:24.799Z,98882.69
2022-09-18T14:55:41.563Z,98869.59
2022-09-18T14:57:58.490Z,98871.94
2022-09-18T15:00:02.381Z,98879.78
2022-09-18T15:02:31.735Z,98873.06
2022-09-18T15:04:35.751Z,98857.56
2022-09-18T15:06:39.930Z,98863.50
2022-09-18T15:08:48.782Z,98854.75
2022-09-18T15:10:53.514Z,98862.28
2022-09-18T15:12:58.425Z,98851.56
2022-09-18T15:15:21.235Z,98843.25
2022-09-18T15:17:26.693Z,98847.56
2022-09-18T15:19:30.577Z,98843.19
2022-09-18T15:21:34.278Z,98831.63
2022-09-18T15:23:40.312Z,98822.91
2022-09-18T15:25:44.639Z,98817.72
2022-09-18T15:27:47.943Z,98810.97
2022-09-18T15:30:03.099Z,98818.13
2022-09-18T15:32:07.825Z,98805.81
2022-09-18T15:34:18.663Z,98808.59
2022-09-18T15:36:34.745Z,98795.13
2022-09-18T15:38:45.891Z,98802.97
2022-09-18T15:40:50.704Z,98797.00
2022-09-18T15:42:58.340Z,98796.56
2022-09-18T15:45:00.993Z,98792.22
2022-09-18T15:47:33.033Z,98786.69
2022-09-18T15:49:35.380Z,98783.06
2022-09-18T15:51:38.788Z,98772.66
2022-09-18T15:53:41.635Z,98758.84
2022-09-18T15:55:54.235Z,98753.25
2022-09-18T15:58:04.153Z,98737.53
2022-09-18T16:00:11.134Z,98735.59
2022-09-18T16:02:35.669Z,98745.19
2022-09-18T16:04:38.361Z,98744.72
2022-09-18T16:06:49.950Z,98740.47
2022-09-18T16:08:55.912Z,98728.44
2022-09-18T16:11:00.129Z,98725.25
2022-09-18T16:13:04.540Z,98728.44
2022-09-18T16:15:21.895Z,98722.50
2022-09-18T16:17:33.773Z,98726.88
2022-09-18T16:19:44.039Z,98716.13
2022-09-18T16:21:46.598Z,98716.91
2022-09-18T16:23:56.369Z,98717.28
2022-09-18T16:26:11.884Z,98715.69
2022-09-18T16:28:27.088Z,98702.22
2022-09-18T16:30:29.938Z,98703.00
2022-09-18T16:32:32.561Z,98706.97
2022-09-18T16:34:35.277Z,98694.69
2022-09-18T16:36:41.347Z,98686.38
2022-09-18T16:38:43.906Z,98680.03
2022-09-18T16:40:47.352Z,98674.09
2022-09-18T16:42:49.880Z,98668.06
2022-09-18T16:44:52.516Z,98661.81
2022-09-18T16:47:01.791Z,98653.53
2022-09-18T16:49:04.735Z,98633.19
2022-09-18T16:51:07.481Z,98645.91
2022-09-18T16:53:10.155Z,98633.38
2022-09-18T16:55:13.775Z,98627.06
2022-09-18T16:57:20.870Z,98600.97
2022-09-18T16:59:27.453Z,98596.63
2022-09-18T17:01:39.615Z,98590.66
2022-09-18T17:03:51.793Z,98586.28
2022-09-18T17:05:54.516Z,98582.72
2022-09-18T17:07:57.892Z,98583.84
2022-09-18T17:10:00.539Z,98583.94
2022-09-18T17:12:03.972Z,98585.56
2022-09-18T17:14:06.787Z,98575.31
2022-09-18T17:16:10.123Z,98566.22
2022-09-18T17:18:12.704Z,98569.03
2022-09-18T17:20:18.093Z,98575.75
2022-09-18T17:22:22.744Z,98567.44
2022-09-18T17:24:27.759Z,98561.53
2022-09-18T17:26:31.270Z,98564.69
2022-09-18T17:28:33.849Z,98560.31
2022-09-18T17:30:41.650Z,98556.69
2022-09-18T17:32:46.487Z,98552.69
2022-09-18T17:34:49.038Z,98552.78
2022-09-18T17:36:51.693Z,98559.84
2022-09-18T17:38:54.352Z,98565.41
2022-09-18T17:41:02.371Z,98563.38
2022-09-18T17:43:05.820Z,98563.03
2022-09-18T17:45:10.567Z,98567.69
2022-09-18T17:47:13.198Z,98564.94
2022-09-18T17:49:15.960Z,98549.53
2022-09-18T17:51:18.691Z,98545.16
2022-09-18T17:53:21.404Z,98540.06
2022-09-18T17:55:23.924Z,98547.13
2022-09-18T17:57:26.452Z,98532.97
2022-09-18T17:59:30.194Z,98532.56
2022-09-18T18:01:36.561Z,98532.22
2022-09-18T18:03:39.481Z,98530.97
2022-09-18T18:05:53.369Z,98526.59
2022-09-18T18:07:55.875Z,98523.50
2022-09-18T18:09:58.409Z,98527.44
2022-09-18T18:12:01.388Z,98528.66
2022-09-18T18:14:05.376Z,98530.91
2022-09-18T18:16:17.066Z,98530.19
2022-09-18T18:18:20.709Z,98526.59
2022-09-18T18:20:23.533Z,98522.69
2022-09-18T18:22:26.142Z,98513.97
2022-09-18T18:24:29.914Z,98504.91
2022-09-18T18:26:32.898Z,98508.44
2022-09-18T18:28:37.684Z,98512.00
2022-09-18T18:30:41.259Z,98504.47
2022-09-18T18:32:43.802Z,98495.31
2022-09-18T18:34:47.549Z,98495.31
2022-09-18T18:36:50.659Z,98492.50
2022-09-18T18:38:55.570Z,98487.34
2022-09-18T18:41:03.715Z,98505.47
2022-09-18T18:43:07.029Z,98505.16
2022-09-18T18:45:10.432Z,98494.88
2022-09-18T18:47:13.676Z,98507.91
2022-09-18T18:49:16.759Z,98505.16
2022-09-18T18:51:19.358Z,98500.06
2022-09-18T18:53:21.877Z,98479.09
2022-09-18T18:55:24.392Z,98474.75
2022-09-18T18:57:26.984Z,98464.94
2022-09-18T18:59:29.682Z,98462.97
2022-09-18T19:01:33.268Z,98459.41
2022-09-18T19:03:42.073Z,98461.75
2022-09-18T19:05:45.341Z,98468.06
2022-09-18T19:07:49.533Z,98455.84
2022-09-18T19:09:52.128Z,98449.53
2022-09-18T19:11:55.539Z,98432.59
2022-09-18T19:13:59.972Z,98431.78
2022-09-18T19:16:04.322Z,98431.34
2022-09-18T19:18:07.069Z,98434.97
2022-09-18T19:20:09.607Z,98425.91
2022-09-18T19:22:17.309Z,98433.81
2022-09-18T19:24:21.052Z,98429.81
2022-09-18T19:26:25.687Z,98434.91
2022-09-18T19:28:28.818Z,98427.84
2022-09-18T19:30:35.763Z,98422.31
2022-09-18T19:32:38.437Z,98421.59
2022-09-18T19:34:41.219Z,98403.84
2022-09-18T19:36:47.268Z,98396.34
2022-09-18T19:39:01.015Z,98396.75
2022-09-18T19:41:12.498Z,98388.06
2022-09-18T19:43:22.535Z,98382.53
2022-09-18T19:45:29.811Z,98390.81
2022-09-18T19:47:41.225Z,98386.16
2022-09-18T19:49:43.929Z,98387.34
2022-09-18T19:51:47.348Z,98383.81
2022-09-18T19:53:49.912Z,98381.13
2022-09-18T19:55:52.639Z,98384.28
2022-09-18T19:57:57.818Z,98378.75
2022-09-18T20:00:01.321Z,98372.44
2022-09-18T20:02:05.009Z,98376.38
2022-09-18T20:04:07.738Z,98375.25
2022-09-18T20:06:10.861Z,98361.44
2022-09-18T20:08:13.409Z,98351.94
2022-09-18T20:10:17.535Z,98349.59
2022-09-18T20:12:20.238Z,98347.56
2022-09-18T20:14:23.370Z,98344.06
2022-09-18T20:16:26.674Z,98339.69
2022-09-18T20:18:30.118Z,98320.34
2022-09-18T20:20:37.509Z,98317.19
2022-09-18T20:22:40.526Z,98310.09
2022-09-18T20:24:43.463Z,98302.63
2022-09-18T20:26:46.286Z,98302.63
2022-09-18T20:28:48.878Z,98295.56
2022-09-18T20:30:51.991Z,98295.56
2022-09-18T20:32:55.148Z,98290.03
2022-09-18T20:34:58.473Z,98293.16
2022-09-18T20:37:03.024Z,98286.09
2022-09-18T20:39:05.865Z,98280.56
2022-09-18T20:41:12.957Z,98278.59
2022-09-18T20:43:17.678Z,98285.75
2022-09-18T20:45:20.305Z,98281.81
2022-09-18T20:47:22.901Z,98285.78
2022-09-18T20:49:26.133Z,98275.94
2022-09-18T20:51:35.026Z,98269.25
2022-09-18T20:53:39.277Z,98266.88
2022-09-18T20:55:41.938Z,98270.38
2022-09-18T20:57:46.305Z,98281.44
2022-09-18T20:59:49.468Z,98281.06
2022-09-18T21:01:52.301Z,98261.34
2022-09-18T21:04:00.951Z,98262.94
2022-09-18T21:06:21.410Z,98260.53
2022-09-18T21:08:26.058Z,98257.38
2022-09-18T21:10:30.653Z,98249.44
2022-09-18T21:12:38.876Z,98237.59
2022-09-18T21:14:42.140Z,98236.00
2022-09-18T21:16:45.198Z,98239.59
2022-09-18T21:18:48.816Z,98233.72
2022-09-18T21:21:04.479Z,98231.34
2022-09-18T21:23:28.046Z,98243.63
2022-09-18T21:25:31.357Z,98235.03
2022-09-18T21:27:33.895Z,98230.69
2022-09-18T21:29:36.449Z,98227.16
2022-09-18T21:31:42.696Z,98225.25
2022-09-18T21:33:45.788Z,98210.69
2022-09-18T21:35:53.179Z,98202.47
2022-09-18T21:37:55.722Z,98204.09
2022-09-18T21:39:58.344Z,98214.41
2022-09-18T21:42:03.194Z,98205.78
2022-09-18T21:44:09.370Z,98194.34
2022-09-18T21:46:15.769Z,98195.56
2022-09-18T21:48:19.977Z,98191.63
2022-09-18T21:50:24.344Z,98186.97
2022-09-18T21:52:29.494Z,98183.84
2022-09-18T21:54:33.470Z,98175.53
2022-09-18T21:56:36.537Z,98181.09
2022-09-18T21:58:40.859Z,98184.69
2022-09-18T22:00:43.774Z,98181.97
2022-09-18T22:02:46.700Z,98191.47
2022-09-18T22:04:49.591Z,98187.94
2022-09-18T22:06:55.505Z,98173.28
2022-09-18T22:08:59.976Z,98178.88
2022-09-18T22:11:04.067Z,98187.59
2022-09-18T22:13:06.757Z,98182.06
2022-09-18T22:15:10.213Z,98182.47
2022-09-18T22:17:12.937Z,98188.41
2022-09-18T22:19:16.993Z,98184.84
2022-09-18T22:21:25.307Z,98190.41
2022-09-18T22:23:27.884Z,98180.94
2022-09-18T22:25:31.240Z,98187.72
2022-09-18T22:27:34.149Z,98189.66
2022-09-18T22:29:38.402Z,98185.31
2022-09-18T22:31:41.291Z,98183.75
2022-09-18T22:33:46.247Z,98190.88
2022-09-18T22:35:49.364Z,98187.75
2022-09-18T22:37:53.014Z,98183.41
2022-09-18T22:39:55.897Z,98173.09
2022-09-18T22:41:58.856Z,98178.66
2022-09-18T22:44:01.553Z,98177.91
2022-09-18T22:46:10.215Z,98179.09
2022-09-18T22:48:12.850Z,98185.44
2022-09-18T22:50:15.559Z,98176.75
2022-09-18T22:52:18.140Z,98181.50
2022-09-18T22:54:26.096Z,98177.94
2022-09-18T22:56:29.650Z,98170.44
2022-09-18T22:58:32.474Z,98177.16
2022-09-18T23:00:35.064Z,98173.22
2022-09-18T23:02:39.004Z,98173.63
2022-09-18T23:04:41.699Z,98172.81
2022-09-18T23:06:45.509Z,98169.28
2022-09-18T23:08:48.179Z,98171.25
2022-09-18T23:10:50.983Z,98165.72
2022-09-18T23:12:53.481Z,98180.00
2022-09-18T23:14:55.985Z,98175.63
2022-09-18T23:17:00.283Z,98174.44
2022-09-18T23:19:06.338Z,98176.03
2022-09-18T23:21:11.720Z,98171.31
2022-09-18T23:23:14.245Z,98168.53
2022-09-18T23:25:16.831Z,98169.72
2022-09-18T23:27:19.374Z,98170.53
2022-09-18T23:29:24.333Z,98166.53
2022-09-18T23:31:29.304Z,98166.53
2022-09-18T23:33:32.449Z,98167.34
2022-09-18T23:35:35.012Z,98172.50
2022-09-18T23:37:37.540Z,98166.97
2022-09-18T23:39:40.142Z,98174.88
2022-09-18T23:41:43.246Z,98169.72
2022-09-18T23:43:47.957Z,98159.03
2022-09-18T23:45:50.547Z,98157.44
2022-09-18T23:47:53.136Z,98166.56
2022-09-18T23:49:55.637Z,98166.59
2022-09-18T23:51:59.752Z,98163.44
2022-09-18T23:54:05.024Z,98166.19
2022-09-18T23:56:12.438Z,98166.97
2022-09-18T23:58:16.284Z,98173.31
